KIND METAR and TAF | Updated Today

KIND METAR

Indianapolis International Airport

Observation time: 5 min. ago

KIND 010854Z 03007KT 10SM CLR 09/06 A3009 RMK AO2 SLP189 T00940061 53001

Need help? Read our tutorial on how to read METARs or read the parsed version below.

Indianapolis International Airport (KIND) METAR

  • Weather conditions on Sat, 01 Oct 2022 08:54:00 +0000 (5 min. ago):
  • Present conditions: Dry
  • Clouds: Clear skies
  • Visibility: 16093 meters
  • Wind: 30 degrees at 7 knots
  • Temperature: 9 celsius
  • Dew point: 6 celsius
  • Pressure: 30.09 inHg
  • Remarks: AO2 SLP189 T00940061 53001


Useful to know...

KIND TAF

Indianapolis International Airport

KIND 010520Z 0106/0212 03009KT P6SM SKC FM011600 03012G22KT P6SM FEW250 FM020000 02009KT P6SM FEW250
Observation time: 3:39 hr. ago
Need help? Read our tutorial on how to read TAFs or read the parsed version below.

Parsed version of TAF for Indianapolis International Airport (KIND)

  • From 01 October at 06:00 UTC, to day 02 of the month at 12:00 UTC
  • Clouds: No significant changes expected
  • Wind: 30 degrees at 9
  • From day 1 of the month at 16:00 UTC
  • Clouds: A few at 7620 meters
  • Wind: 30 degrees at 12
  • From day 2 of the month at 00:00 UTC
  • Clouds: A few at 7620 meters
  • Wind: 20 degrees at 9